Lansing, Iowa
Current Conditions -  °F | °C
As of 6:15 PM on Thursday 27 Nov 2014 (Local Time) from KY51 Reporting Station
Clear Clear  
Wind Chill:   Ceiling: Unl
Heat Index:   Visibility: 10mi
Dew Point: -1°   Wind: 0mph
Humidity: 71%   Direction: NA
Pressure: 30.35"   Gusts: NA
Location:  43.36°N, 91.22°W
Report Text: KY51 280015Z AUTO 00000KT 10SM CLR M14/M19 A3035 RMK AO1 T11441186
Loading
Personal Weather Stations






























Interactive Weather Map New forecast layout! Learn more

10-Day Weather Forecast

Advertisements
Track Severe Weather on mobile